Latest Weather Observations for Bairnsdale

IDV60801

Issued at 6:02 am EDT Monday 22 December 2014 (issued every 30 minutes, with the page automatically refreshed every 10 minutes)

About weather observations | Map of weather stations | Latest weather observations for VIC | Other Formats
Station Details ID: 085279 Name: BAIRNSDALE AIRPORT Lat: -37.88 Lon: 147.57 Height: 49.4 m
Data from the previous 72 hours. | See also: Recent months at Bairnsdale
Date/Time
EDT
Temp
°C
App
Temp
°C
Dew
Point
Rel
Hum
%
Delta-T
°C
Wind Press
QNH
hPa
Press
MSL
hPa
Rain
since 9 am
mm
Dir
 
Spd
km/h
Gust
km/h
Spd
kts
Gust
kts
22/05:30am 13.5 12.6 12.7 95 0.4 NW 9 9 5 5 1012.6 1012.5 0.0
22/05:00am 14.0 12.8 12.9 93 0.6 NNW 11 13 6 7 1012.4 1012.3 0.0
22/04:30am 14.2 15.0 12.4 89 1.0 CALM 0 7 0 4 1012.3 1012.2 0.0
22/04:00am 14.3 13.9 12.5 89 1.0 SW 6 7 3 4 1012.3 1012.2 0.0
22/03:30am 14.7 14.1 12.4 86 1.3 SW 7 9 4 5 1012.4 1012.3 0.0
22/03:00am 15.7 15.4 13.4 86 1.3 NNW 7 9 4 5 1012.3 1012.2 0.0
22/02:30am 16.2 15.6 13.5 84 1.5 NNW 9 11 5 6 1012.4 1012.3 0.0
22/02:00am 16.7 16.1 13.4 81 1.9 N 9 13 5 7 1012.6 1012.5 0.0
22/01:30am 18.5 17.9 14.6 78 2.3 NNE 11 13 6 7 1012.9 1012.8 0.0
22/01:00am 19.5 18.7 13.9 70 3.2 ENE 11 15 6 8 1013.1 1013.0 0.0
22/12:30am 19.1 17.7 13.5 70 3.2 E 13 15 7 8 1013.2 1013.1 0.0
22/12:00am 18.9 17.9 13.3 70 3.2 ESE 11 13 6 7 1013.2 1013.1 0.0
 
Date/Time
EDT
Temp
°C
App
Temp
°C
Dew
Point
Rel
Hum
%
Delta-T
°C
Wind Press
QNH
hPa
Press
MSL
hPa
Rain
since 9 am
mm
Dir
 
Spd
km/h
Gust
km/h
Spd
kts
Gust
kts
21/11:30pm 19.7 18.3 13.4 67 3.6 SE 13 15 7 8 1013.3 1013.2 0.0
21/11:00pm 19.6 18.2 13.5 68 3.5 E 13 15 7 8 1013.2 1013.1 0.0
21/10:30pm 20.0 19.0 14.6 71 3.2 ESE 13 15 7 8 1013.4 1013.3 0.0
21/10:00pm 20.3 19.4 14.9 71 3.2 ESE 13 15 7 8 1013.3 1013.2 0.0
21/09:30pm 21.2 21.2 15.3 69 3.5 ENE 9 13 5 7 1013.1 1013.0 0.0
21/09:00pm 21.4 20.9 14.8 66 3.9 E 11 15 6 8 1012.9 1012.8 0.0
21/08:30pm 22.4 22.4 15.3 64 4.2 E 9 13 5 7 1012.9 1012.8 0.0
21/08:00pm 23.6 22.5 14.3 56 5.5 E 13 19 7 10 1012.8 1012.7 0.0
21/07:30pm 24.8 23.7 14.3 52 6.2 E 13 17 7 9 1012.7 1012.6 0.0
21/07:00pm 25.5 24.4 13.0 46 7.3 E 11 15 6 8 1012.8 1012.7 0.0
21/06:30pm 25.0 23.0 11.6 43 7.6 E 13 19 7 10 1012.8 1012.7 0.0
21/06:00pm 25.5 23.4 12.4 44 7.6 ENE 15 20 8 11 1012.8 1012.7 0.0
21/05:30pm 25.7 24.1 13.9 48 7.0 ESE 15 19 8 10 1013.0 1012.9 0.0
21/05:00pm 24.6 23.0 15.0 55 5.8 E 17 22 9 12 1013.1 1013.0 0.0
21/04:30pm 25.2 23.7 14.3 50 6.5 ESE 15 19 8 10 1013.4 1013.3 0.0
21/04:00pm 25.3 23.5 14.4 50 6.5 E 17 20 9 11 1013.4 1013.3 0.0
21/03:30pm 24.9 23.3 15.0 54 5.9 ESE 17 22 9 12 1013.8 1013.7 0.0
21/03:00pm 24.8 23.1 15.7 57 5.5 ESE 19 28 10 15 1013.9 1013.8 0.0
21/02:30pm 24.8 23.2 15.1 54 5.8 ESE 17 20 9 11 1014.3 1014.2 0.0
21/02:00pm 24.5 23.9 15.7 58 5.3 E 13 20 7 11 1014.3 1014.2 0.0
21/01:30pm 24.0 22.2 15.5 59 5.1 SE 19 24 10 13 1014.6 1014.5 0.0
21/01:00pm 23.0 20.8 14.3 58 5.1 SE 19 24 10 13 1014.8 1014.7 0.0
21/12:30pm 23.4 21.6 14.4 57 5.3 SE 17 28 9 15 1014.9 1014.8 0.0
21/12:00pm 23.8 23.1 15.3 59 5.1 E 13 22 7 12 1014.9 1014.8 0.0
21/11:30am 23.3 22.4 13.8 55 5.6 E 11 17 6 9 1015.2 1015.1 0.0
21/11:00am 22.4 20.7 12.6 54 5.6 ENE 13 22 7 12 1015.4 1015.3 0.0
21/10:30am 21.4 20.3 13.1 59 4.8 ENE 11 15 6 8 1015.6 1015.5 0.0
21/10:00am 20.2 18.5 12.4 61 4.4 ENE 13 24 7 13 1015.7 1015.6 0.0
21/09:30am 19.6 16.9 11.6 60 4.4 ENE 17 28 9 15 1016.0 1015.9 0.0
21/09:00am 19.0 17.5 12.0 64 3.9 ENE 11 17 6 9 1016.6 1016.5 0.0
21/08:30am 17.3 16.1 12.8 75 2.5 NE 11 15 6 8 1016.6 1016.5 0.0
21/08:00am 15.7 15.4 12.6 82 1.7 NE 6 9 3 5 1016.6 1016.5 0.0
21/07:30am 14.1 14.9 12.7 91 0.8 CALM 0 0 0 0 1016.2 1016.1 0.0
21/07:00am 13.4 13.2 13.1 98 0.2 ENE 6 7 3 4 1015.7 1015.6 0.0
21/06:31am 11.9 11.3 11.7 99 0.1 ENE 6 7 3 4 1015.5 1015.4 0.0
21/06:30am 11.8 11.2 11.6 99 0.1 ENE 6 7 3 4 1015.5 1015.4 0.0
21/06:04am 10.0 8.8 9.4 96 0.3 ENE 6 6 3 3 1015.3 1015.2 0.0
21/05:39am 11.1 10.2 10.8 98 0.2 NE 6 7 3 4 1015.3 1015.2 0.0
21/05:30am 10.7 9.7 10.2 97 0.3 NE 6 6 3 3 1015.3 1015.2 0.0
21/05:20am 10.6 9.9 10.0 96 0.3 NE 4 7 2 4 1015.5 1015.4 0.0
21/05:00am 11.2 10.3 10.7 97 0.3 NE 6 7 3 4 1015.4 1015.3 0.0
21/04:30am 11.7 10.9 11.1 96 0.3 NNE 6 7 3 4 1015.5 1015.4 0.0
21/04:00am 12.1 10.8 11.3 95 0.4 ENE 9 11 5 6 1015.6 1015.5 0.0
21/03:30am 12.3 11.1 11.5 95 0.4 ENE 9 11 5 6 1015.8 1015.7 0.0
21/03:00am 12.4 11.6 11.6 95 0.4 E 7 9 4 5 1016.1 1016.0 0.0
21/02:30am 12.8 13.0 11.9 94 0.5 NE 2 6 1 3 1016.5 1016.4 0.0
21/02:00am 12.8 12.1 11.9 94 0.5 NNE 7 9 4 5 1016.8 1016.7 0.0
21/01:30am 13.1 12.1 12.2 94 0.5 N 9 11 5 6 1016.9 1016.8 0.0
21/01:00am 13.2 12.6 12.3 94 0.5 NNE 7 7 4 4 1017.0 1016.9 0.0
21/12:30am 13.0 12.4 11.7 92 0.7 N 6 7 3 4 1017.3 1017.2 0.0
21/12:00am 13.8 13.3 12.5 92 0.7 NNE 7 9 4 5 1017.6 1017.5 0.0
 
Date/Time
EDT
Temp
°C
App
Temp
°C
Dew
Point
Rel
Hum
%
Delta-T
°C
Wind Press
QNH
hPa
Press
MSL
hPa
Rain
since 9 am
mm
Dir
 
Spd
km/h
Gust
km/h
Spd
kts
Gust
kts
20/11:30pm 13.6 12.6 12.2 91 0.8 N 9 9 5 5 1017.8 1017.7 0.0
20/11:00pm 13.8 13.1 12.0 89 1.0 N 7 7 4 4 1018.0 1017.9 0.0
20/10:30pm 13.3 12.5 11.0 86 1.2 NE 6 7 3 4 1018.1 1018.0 0.0
20/10:00pm 14.6 14.2 12.3 86 1.3 NNE 6 7 3 4 1018.2 1018.1 0.0
20/09:30pm 14.9 14.4 11.9 82 1.6 E 6 7 3 4 1018.2 1018.1 0.0
20/09:00pm 15.8 15.1 12.0 78 2.1 ESE 7 7 4 4 1018.0 1017.9 0.0
20/08:30pm 16.4 15.3 12.0 75 2.4 ESE 9 11 5 6 1017.8 1017.7 0.0
20/08:00pm 17.4 15.6 12.1 71 2.9 SE 13 17 7 9 1017.5 1017.4 0.0
20/07:30pm 18.0 15.2 12.5 70 3.1 SE 19 24 10 13 1017.3 1017.2 0.0
20/07:00pm 18.4 15.3 12.2 67 3.4 SE 20 26 11 14 1016.9 1016.8 0.0
20/06:30pm 19.5 16.7 11.5 60 4.4 SE 17 22 9 12 1016.7 1016.6 0.0
20/06:00pm 20.1 17.9 12.1 60 4.5 SE 15 24 8 13 1016.4 1016.3 0.0
20/05:30pm 20.2 17.1 12.2 60 4.5 SE 20 26 11 14 1016.3 1016.2 0.0
20/05:00pm 20.9 17.7 11.8 56 5.1 SSE 20 28 11 15 1016.3 1016.2 0.0
20/04:30pm 21.4 18.6 11.4 53 5.6 SE 17 24 9 13 1016.3 1016.2 0.0
20/04:00pm 21.8 19.0 11.2 51 5.9 SSE 17 28 9 15 1016.4 1016.3 0.0
20/03:30pm 22.6 20.2 11.4 49 6.3 SSW 15 26 8 14 1016.6 1016.5 0.0
20/03:00pm 21.9 19.6 11.9 53 5.6 SSW 15 30 8 16 1016.8 1016.7 0.0
20/02:30pm 21.7 18.9 11.4 52 5.7 SW 17 22 9 12 1017.0 1016.9 0.0
20/02:00pm 21.1 17.4 10.3 50 5.9 SSW 20 32 11 17 1017.2 1017.1 0.0
20/01:30pm 21.4 18.1 10.9 51 5.8 WSW 19 28 10 15 1017.4 1017.3 0.0
20/01:00pm 20.5 16.9 10.0 51 5.7 SW 19 26 10 14 1017.5 1017.4 0.0
20/12:30pm 20.9 17.5 10.4 51 5.7 WSW 19 32 10 17 1017.8 1017.7 0.0
20/12:00pm 20.1 16.7 9.1 49 5.8 W 17 24 9 13 1018.0 1017.9 0.0
20/11:30am 19.4 15.7 9.3 52 5.3 WSW 19 37 10 20 1018.2 1018.1 0.0
20/11:00am 19.1 15.8 9.6 54 5.0 W 17 24 9 13 1018.4 1018.3 0.0
20/10:30am 18.5 15.0 8.7 53 5.1 WSW 17 26 9 14 1018.5 1018.4 0.0
20/10:00am 18.1 14.4 8.1 52 5.1 WSW 17 24 9 13 1018.5 1018.4 0.0
20/09:30am 17.2 14.1 8.9 58 4.3 WSW 15 24 8 13 1018.5 1018.4 0.0
20/09:00am 16.3 12.7 8.3 59 4.1 W 17 26 9 14 1018.5 1018.4 0.2
20/08:30am 15.5 12.8 9.0 65 3.3 WNW 13 17 7 9 1018.4 1018.3 0.2
20/08:00am 14.2 11.1 9.0 71 2.6 NW 15 20 8 11 1018.4 1018.3 0.2
20/07:30am 12.4 9.7 9.1 80 1.7 NW 13 17 7 9 1018.1 1018.0 0.2
20/07:00am 10.8 8.4 8.7 87 1.0 NW 11 15 6 8 1018.1 1018.0 0.2
20/06:30am 9.5 6.1 7.6 88 0.9 WNW 15 17 8 9 1017.9 1017.8 0.2
20/06:00am 8.8 6.0 7.1 89 0.8 NW 11 15 6 8 1017.8 1017.7 0.2
20/05:30am 8.6 5.7 6.7 88 0.9 NW 11 15 6 8 1017.8 1017.7 0.2
20/05:00am 8.8 6.0 7.1 89 0.8 NW 11 15 6 8 1017.6 1017.5 0.2
20/04:30am 8.9 6.1 7.0 88 0.9 NW 11 13 6 7 1017.5 1017.4 0.2
20/04:00am 9.0 5.8 6.8 86 1.0 WNW 13 17 7 9 1017.4 1017.3 0.2
20/03:30am 9.4 6.3 7.2 86 1.0 NW 13 17 7 9 1017.5 1017.4 0.2
20/03:00am 9.4 6.7 7.2 86 1.0 WNW 11 13 6 7 1017.7 1017.6 0.2
20/02:30am 9.3 6.5 7.1 86 1.0 WNW 11 15 6 8 1017.9 1017.8 0.2
20/02:00am 9.5 6.0 7.4 87 1.0 NW 15 17 8 9 1018.1 1018.0 0.2
20/01:30am 9.3 6.2 7.4 88 0.9 NW 13 15 7 8 1018.4 1018.3 0.2
20/01:00am 9.7 7.1 7.6 87 1.0 NW 11 15 6 8 1018.7 1018.6 0.2
20/12:30am 11.1 7.9 6.8 75 2.0 WNW 13 15 7 8 1018.8 1018.7 0.2
20/12:00am 11.9 8.9 7.8 76 2.0 W 13 15 7 8 1019.1 1019.0 0.2
 
Date/Time
EDT
Temp
°C
App
Temp
°C
Dew
Point
Rel
Hum
%
Delta-T
°C
Wind Press
QNH
hPa
Press
MSL
hPa
Rain
since 9 am
mm
Dir
 
Spd
km/h
Gust
km/h
Spd
kts
Gust
kts
19/11:30pm 11.8 9.1 9.0 83 1.4 WNW 13 17 7 9 1019.2 1019.1 0.2
19/11:00pm 11.8 9.1 9.0 83 1.4 WNW 13 17 7 9 1019.3 1019.2 0.2
19/10:30pm 11.6 9.2 8.6 82 1.5 WNW 11 15 6 8 1019.3 1019.2 0.2
19/10:00pm 13.4 10.8 9.3 76 2.1 N 13 19 7 10 1019.0 1018.9 0.2
19/09:30pm 12.3 10.3 8.8 79 1.8 NNW 9 13 5 7 1018.9 1018.8 0.2
19/09:00pm 12.8 10.9 9.1 78 1.9 NNE 9 13 5 7 1018.6 1018.5 0.2
19/08:30pm 13.8 11.8 8.8 72 2.5 ENE 9 11 5 6 1018.5 1018.4 0.2
19/08:00pm 15.7 13.5 9.4 66 3.3 ESE 11 13 6 7 1018.2 1018.1 0.2
19/07:30pm 15.9 13.3 9.3 65 3.4 SE 13 20 7 11 1017.9 1017.8 0.2
19/07:00pm 16.7 13.0 9.6 63 3.7 SSE 19 24 10 13 1017.5 1017.4 0.2
19/06:30pm 16.6 12.6 9.1 61 3.9 SSE 20 33 11 18 1017.2 1017.1 0.2
19/06:00pm 17.6 13.7 8.7 56 4.6 SSE 19 28 10 15 1016.8 1016.7 0.2
19/05:30pm 17.2 13.4 8.9 58 4.3 SSE 19 28 10 15 1016.6 1016.5 0.2
19/05:00pm 17.8 13.8 8.9 56 4.6 S 20 28 11 15 1016.3 1016.2 0.2
19/04:30pm 17.3 13.3 9.2 59 4.2 SSE 20 30 11 16 1016.2 1016.1 0.2
19/04:00pm 17.3 13.3 9.0 58 4.3 S 20 28 11 15 1016.3 1016.2 0.2
19/03:30pm 16.7 12.3 8.9 60 4.0 S 22 30 12 16 1016.4 1016.3 0.2
19/03:00pm 16.6 11.8 8.8 60 4.0 S 24 28 13 15 1016.2 1016.1 0.2
19/02:30pm 17.5 13.2 7.0 50 5.2 SSW 19 32 10 17 1015.8 1015.7 0.2
19/02:00pm 18.7 13.2 5.9 43 6.3 WSW 24 33 13 18 1015.9 1015.8 0.2
19/01:30pm 18.3 14.3 8.3 52 5.2 WSW 19 28 10 15 1015.7 1015.6 0.2
19/01:00pm 17.5 14.3 9.9 61 4.0 W 17 22 9 12 1016.0 1015.9 0.2
19/12:30pm 16.1 11.6 8.6 61 3.8 WSW 22 32 12 17 1016.1 1016.0 0.2
19/12:00pm 16.1 12.0 7.8 58 4.2 W 19 28 10 15 1016.0 1015.9 0.2
19/11:30am 16.5 12.2 6.9 53 4.8 WSW 19 24 10 13 1015.8 1015.7 0.2
19/11:00am 17.3 12.6 7.9 54 4.8 WSW 22 33 12 18 1015.5 1015.4 0.2
19/10:30am 15.4 10.7 7.7 60 3.8 W 22 30 12 16 1015.6 1015.5 0.0
19/10:00am 15.7 11.2 8.4 62 3.7 WSW 22 35 12 19 1015.5 1015.4 0.0
19/09:30am 16.8 12.2 9.5 62 3.8 WSW 24 35 13 19 1015.5 1015.4 0.0
19/09:00am 14.5 10.2 7.8 64 3.3 WSW 20 28 11 15 1015.6 1015.5 13.4
19/08:30am 14.8 10.9 8.7 67 3.1 WSW 19 24 10 13 1015.2 1015.1 13.4
19/08:00am 14.0 10.1 9.4 74 2.4 W 20 28 11 15 1014.9 1014.8 13.4
19/07:30am 13.7 10.1 9.7 77 2.1 W 19 24 10 13 1014.3 1014.2 13.4
19/07:00am 12.2 8.9 9.4 83 1.4 WNW 17 22 9 12 1014.0 1013.9 13.4
19/06:30am 10.9 8.1 8.5 85 1.2 W 13 19 7 10 1013.8 1013.7 13.4

Other Formats:

Comma delimited format used in spreadsheet applications
http://www.bom.gov.au/fwo/IDV60801/IDV60801.94912.axf

JavaScript Object Notation format (JSON) in row-major order
http://www.bom.gov.au/fwo/IDV60801/IDV60801.94912.json